sensor_id;sensor_type;location;lat;lon;timestamp;temperature;humidity
12233;DHT22;6179;51.748;8.728;2023-12-28T00:04:28;9.60;93.90
12233;DHT22;6179;51.748;8.728;2023-12-28T00:10:28;9.60;96.10
12233;DHT22;6179;51.748;8.728;2023-12-28T00:16:31;9.80;97.10
12233;DHT22;6179;51.748;8.728;2023-12-28T00:22:33;9.50;97.50
12233;DHT22;6179;51.748;8.728;2023-12-28T00:28:33;9.40;98.30
12233;DHT22;6179;51.748;8.728;2023-12-28T00:34:34;9.30;98.30
12233;DHT22;6179;51.748;8.728;2023-12-28T00:40:36;9.20;98.30
12233;DHT22;6179;51.748;8.728;2023-12-28T00:46:37;9.30;98.30
12233;DHT22;6179;51.748;8.728;2023-12-28T00:52:38;9.30;98.30
12233;DHT22;6179;51.748;8.728;2023-12-28T00:58:39;9.10;98.30
12233;DHT22;6179;51.748;8.728;2023-12-28T01:04:41;8.90;98.30
12233;DHT22;6179;51.748;8.728;2023-12-28T01:10:41;8.80;98.30
12233;DHT22;6179;51.748;8.728;2023-12-28T01:16:42;9.10;98.30
12233;DHT22;6179;51.748;8.728;2023-12-28T01:22:44;9.00;98.30
12233;DHT22;6179;51.748;8.728;2023-12-28T01:28:45;8.80;98.30
12233;DHT22;6179;51.748;8.728;2023-12-28T01:34:45;8.80;98.30
12233;DHT22;6179;51.748;8.728;2023-12-28T01:40:46;8.90;98.30
12233;DHT22;6179;51.748;8.728;2023-12-28T01:46:46;9.10;98.30
12233;DHT22;6179;51.748;8.728;2023-12-28T01:52:47;9.10;98.30
12233;DHT22;6179;51.748;8.728;2023-12-28T01:58:49;9.10;98.30
12233;DHT22;6179;51.748;8.728;2023-12-28T02:04:53;9.20;98.30
12233;DHT22;6179;51.748;8.728;2023-12-28T02:10:53;9.20;98.30
12233;DHT22;6179;51.748;8.728;2023-12-28T02:17:20;9.30;98.30
12233;DHT22;6179;51.748;8.728;2023-12-28T02:23:23;9.30;98.30
12233;DHT22;6179;51.748;8.728;2023-12-28T02:29:23;9.30;98.30
12233;DHT22;6179;51.748;8.728;2023-12-28T02:35:29;9.30;98.30
12233;DHT22;6179;51.748;8.728;2023-12-28T02:41:32;9.30;98.30
12233;DHT22;6179;51.748;8.728;2023-12-28T02:47:33;9.30;98.30
12233;DHT22;6179;51.748;8.728;2023-12-28T02:53:34;9.30;98.30
12233;DHT22;6179;51.748;8.728;2023-12-28T02:59:34;9.30;98.30
12233;DHT22;6179;51.748;8.728;2023-12-28T03:05:35;9.40;98.30
12233;DHT22;6179;51.748;8.728;2023-12-28T03:11:35;9.30;98.30
12233;DHT22;6179;51.748;8.728;2023-12-28T03:17:36;9.40;98.30
12233;DHT22;6179;51.748;8.728;2023-12-28T03:23:37;9.50;98.30
12233;DHT22;6179;51.748;8.728;2023-12-28T03:29:37;9.30;98.30
12233;DHT22;6179;51.748;8.728;2023-12-28T03:35:38;9.30;98.30
12233;DHT22;6179;51.748;8.728;2023-12-28T03:41:38;9.30;98.30
12233;DHT22;6179;51.748;8.728;2023-12-28T03:47:39;9.60;98.30
12233;DHT22;6179;51.748;8.728;2023-12-28T03:53:43;9.30;98.30
12233;DHT22;6179;51.748;8.728;2023-12-28T03:59:43;9.30;98.30
12233;DHT22;6179;51.748;8.728;2023-12-28T04:05:44;9.40;98.30
12233;DHT22;6179;51.748;8.728;2023-12-28T04:11:45;9.40;98.30
12233;DHT22;6179;51.748;8.728;2023-12-28T04:17:45;9.10;98.30
12233;DHT22;6179;51.748;8.728;2023-12-28T04:23:46;9.00;98.30
12233;DHT22;6179;51.748;8.728;2023-12-28T04:29:47;8.80;98.30
12233;DHT22;6179;51.748;8.728;2023-12-28T04:35:48;8.80;98.30
12233;DHT22;6179;51.748;8.728;2023-12-28T04:41:49;8.90;98.30
12233;DHT22;6179;51.748;8.728;2023-12-28T04:47:49;9.30;98.30
12233;DHT22;6179;51.748;8.728;2023-12-28T04:53:50;9.00;98.30
12233;DHT22;6179;51.748;8.728;2023-12-28T04:59:51;9.00;98.30
12233;DHT22;6179;51.748;8.728;2023-12-28T05:05:52;8.90;98.30
12233;DHT22;6179;51.748;8.728;2023-12-28T05:11:52;8.60;98.30
12233;DHT22;6179;51.748;8.728;2023-12-28T05:17:53;8.70;98.30
12233;DHT22;6179;51.748;8.728;2023-12-28T05:23:53;8.60;98.30
12233;DHT22;6179;51.748;8.728;2023-12-28T05:29:54;8.60;98.30
12233;DHT22;6179;51.748;8.728;2023-12-28T05:35:55;8.60;98.30
12233;DHT22;6179;51.748;8.728;2023-12-28T05:41:55;8.60;98.30
12233;DHT22;6179;51.748;8.728;2023-12-28T05:47:56;8.60;98.30
12233;DHT22;6179;51.748;8.728;2023-12-28T05:53:56;8.80;98.30
12233;DHT22;6179;51.748;8.728;2023-12-28T05:59:57;9.00;98.30
12233;DHT22;6179;51.748;8.728;2023-12-28T06:05:58;8.90;98.30
12233;DHT22;6179;51.748;8.728;2023-12-28T06:11:59;8.90;98.30
12233;DHT22;6179;51.748;8.728;2023-12-28T06:18:00;9.20;98.30
12233;DHT22;6179;51.748;8.728;2023-12-28T06:24:02;9.40;98.30
12233;DHT22;6179;51.748;8.728;2023-12-28T06:30:03;9.00;98.30
12233;DHT22;6179;51.748;8.728;2023-12-28T06:36:07;9.10;98.30
12233;DHT22;6179;51.748;8.728;2023-12-28T06:42:08;8.90;98.30
12233;DHT22;6179;51.748;8.728;2023-12-28T06:48:09;8.90;98.30
12233;DHT22;6179;51.748;8.728;2023-12-28T06:54:10;8.80;98.30
12233;DHT22;6179;51.748;8.728;2023-12-28T07:00:11;8.90;98.30
12233;DHT22;6179;51.748;8.728;2023-12-28T07:06:13;8.90;98.30
12233;DHT22;6179;51.748;8.728;2023-12-28T07:12:14;9.10;98.30
12233;DHT22;6179;51.748;8.728;2023-12-28T07:18:15;9.10;98.30
12233;DHT22;6179;51.748;8.728;2023-12-28T07:24:15;9.20;98.30
12233;DHT22;6179;51.748;8.728;2023-12-28T07:30:16;9.40;98.30
12233;DHT22;6179;51.748;8.728;2023-12-28T07:36:17;9.20;98.30
12233;DHT22;6179;51.748;8.728;2023-12-28T07:42:18;9.20;98.30
12233;DHT22;6179;51.748;8.728;2023-12-28T07:48:19;9.20;98.30
12233;DHT22;6179;51.748;8.728;2023-12-28T07:54:20;9.10;98.30
12233;DHT22;6179;51.748;8.728;2023-12-28T08:00:20;9.20;98.30
12233;DHT22;6179;51.748;8.728;2023-12-28T08:06:21;9.20;98.30
12233;DHT22;6179;51.748;8.728;2023-12-28T08:12:22;9.10;98.30
12233;DHT22;6179;51.748;8.728;2023-12-28T08:18:24;9.10;98.30
12233;DHT22;6179;51.748;8.728;2023-12-28T08:24:25;9.10;98.30
12233;DHT22;6179;51.748;8.728;2023-12-28T08:30:25;9.20;98.30
12233;DHT22;6179;51.748;8.728;2023-12-28T08:36:28;9.20;98.30
12233;DHT22;6179;51.748;8.728;2023-12-28T08:42:28;9.10;98.30
12233;DHT22;6179;51.748;8.728;2023-12-28T08:48:29;9.30;98.30
12233;DHT22;6179;51.748;8.728;2023-12-28T08:54:29;9.60;98.30
12233;DHT22;6179;51.748;8.728;2023-12-28T09:00:30;9.50;98.30
12233;DHT22;6179;51.748;8.728;2023-12-28T09:06:30;9.50;98.30
12233;DHT22;6179;51.748;8.728;2023-12-28T09:12:31;9.50;98.30
12233;DHT22;6179;51.748;8.728;2023-12-28T09:18:31;9.70;97.90
12233;DHT22;6179;51.748;8.728;2023-12-28T09:24:32;9.70;98.20
12233;DHT22;6179;51.748;8.728;2023-12-28T09:30:33;9.80;97.30
12233;DHT22;6179;51.748;8.728;2023-12-28T09:36:33;9.90;97.20
12233;DHT22;6179;51.748;8.728;2023-12-28T09:42:48;9.90;96.80
12233;DHT22;6179;51.748;8.728;2023-12-28T09:48:49;9.90;96.80
12233;DHT22;6179;51.748;8.728;2023-12-28T09:54:50;9.90;97.20
12233;DHT22;6179;51.748;8.728;2023-12-28T10:00:51;9.90;97.40
12233;DHT22;6179;51.748;8.728;2023-12-28T10:06:51;10.00;96.60
12233;DHT22;6179;51.748;8.728;2023-12-28T10:12:52;10.20;96.20
12233;DHT22;6179;51.748;8.728;2023-12-28T10:18:55;10.30;95.30
12233;DHT22;6179;51.748;8.728;2023-12-28T10:24:55;10.40;95.60
12233;DHT22;6179;51.748;8.728;2023-12-28T10:30:56;10.60;94.70
12233;DHT22;6179;51.748;8.728;2023-12-28T10:36:59;10.70;94.40
12233;DHT22;6179;51.748;8.728;2023-12-28T10:43:06;10.80;93.90
12233;DHT22;6179;51.748;8.728;2023-12-28T10:49:12;10.70;93.80
12233;DHT22;6179;51.748;8.728;2023-12-28T10:55:58;10.80;93.00
12233;DHT22;6179;51.748;8.728;2023-12-28T11:02:01;10.80;93.00
12233;DHT22;6179;51.748;8.728;2023-12-28T11:08:04;10.90;93.90
12233;DHT22;6179;51.748;8.728;2023-12-28T11:14:07;10.90;93.20
12233;DHT22;6179;51.748;8.728;2023-12-28T11:20:09;11.00;93.50
12233;DHT22;6179;51.748;8.728;2023-12-28T11:26:17;11.10;92.80
12233;DHT22;6179;51.748;8.728;2023-12-28T11:32:19;11.30;93.20
12233;DHT22;6179;51.748;8.728;2023-12-28T11:38:20;11.10;92.30
12233;DHT22;6179;51.748;8.728;2023-12-28T11:44:26;11.00;92.40
12233;DHT22;6179;51.748;8.728;2023-12-28T11:50:26;11.10;92.40
12233;DHT22;6179;51.748;8.728;2023-12-28T11:56:27;11.10;91.50
12233;DHT22;6179;51.748;8.728;2023-12-28T12:02:29;11.20;91.70
12233;DHT22;6179;51.748;8.728;2023-12-28T12:08:30;11.20;91.90
12233;DHT22;6179;51.748;8.728;2023-12-28T12:14:31;11.30;90.70
12233;DHT22;6179;51.748;8.728;2023-12-28T12:20:32;11.40;91.30
12233;DHT22;6179;51.748;8.728;2023-12-28T12:26:32;11.30;89.90
12233;DHT22;6179;51.748;8.728;2023-12-28T12:32:36;11.30;90.40
12233;DHT22;6179;51.748;8.728;2023-12-28T12:38:43;11.30;90.90
12233;DHT22;6179;51.748;8.728;2023-12-28T12:44:43;11.40;90.60
12233;DHT22;6179;51.748;8.728;2023-12-28T12:50:45;11.40;89.40
12233;DHT22;6179;51.748;8.728;2023-12-28T12:56:45;11.20;90.60
12233;DHT22;6179;51.748;8.728;2023-12-28T13:02:46;11.20;90.30
12233;DHT22;6179;51.748;8.728;2023-12-28T13:08:47;11.30;89.80
12233;DHT22;6179;51.748;8.728;2023-12-28T13:14:47;11.20;89.20
12233;DHT22;6179;51.748;8.728;2023-12-28T13:20:48;11.20;90.30
12233;DHT22;6179;51.748;8.728;2023-12-28T13:26:48;11.30;89.90
12233;DHT22;6179;51.748;8.728;2023-12-28T13:32:49;11.20;89.10
12233;DHT22;6179;51.748;8.728;2023-12-28T13:38:50;11.70;89.10
12233;DHT22;6179;51.748;8.728;2023-12-28T13:44:51;11.60;89.30
12233;DHT22;6179;51.748;8.728;2023-12-28T13:50:52;11.80;87.80
12233;DHT22;6179;51.748;8.728;2023-12-28T13:56:52;11.40;89.50
12233;DHT22;6179;51.748;8.728;2023-12-28T14:02:59;11.30;89.00
12233;DHT22;6179;51.748;8.728;2023-12-28T14:08:59;11.30;89.00
12233;DHT22;6179;51.748;8.728;2023-12-28T14:15:00;11.20;88.70
12233;DHT22;6179;51.748;8.728;2023-12-28T14:21:01;11.20;89.80
12233;DHT22;6179;51.748;8.728;2023-12-28T14:27:04;11.20;88.60
12233;DHT22;6179;51.748;8.728;2023-12-28T14:33:05;11.20;89.10
12233;DHT22;6179;51.748;8.728;2023-12-28T14:39:08;11.20;88.70
12233;DHT22;6179;51.748;8.728;2023-12-28T14:45:09;11.10;89.10
12233;DHT22;6179;51.748;8.728;2023-12-28T14:51:09;11.10;88.90
12233;DHT22;6179;51.748;8.728;2023-12-28T14:57:10;11.20;88.40
12233;DHT22;6179;51.748;8.728;2023-12-28T15:03:12;10.70;89.20
12233;DHT22;6179;51.748;8.728;2023-12-28T15:09:12;10.60;90.10
12233;DHT22;6179;51.748;8.728;2023-12-28T15:15:13;10.50;89.50
12233;DHT22;6179;51.748;8.728;2023-12-28T15:21:14;10.50;89.90
12233;DHT22;6179;51.748;8.728;2023-12-28T15:27:15;10.50;89.70
12233;DHT22;6179;51.748;8.728;2023-12-28T15:33:15;10.60;89.60
12233;DHT22;6179;51.748;8.728;2023-12-28T15:39:16;10.20;90.90
12233;DHT22;6179;51.748;8.728;2023-12-28T15:45:17;10.20;90.40
12233;DHT22;6179;51.748;8.728;2023-12-28T15:51:17;10.20;90.30
12233;DHT22;6179;51.748;8.728;2023-12-28T15:57:18;10.20;89.70
12233;DHT22;6179;51.748;8.728;2023-12-28T16:03:19;10.10;90.20
12233;DHT22;6179;51.748;8.728;2023-12-28T16:09:19;10.00;91.30
12233;DHT22;6179;51.748;8.728;2023-12-28T16:15:21;10.00;90.80
12233;DHT22;6179;51.748;8.728;2023-12-28T16:21:22;9.90;91.30
12233;DHT22;6179;51.748;8.728;2023-12-28T16:27:23;9.80;91.90
12233;DHT22;6179;51.748;8.728;2023-12-28T16:33:24;9.60;92.40
12233;DHT22;6179;51.748;8.728;2023-12-28T16:39:24;9.60;92.40
12233;DHT22;6179;51.748;8.728;2023-12-28T16:45:25;9.60;92.40
12233;DHT22;6179;51.748;8.728;2023-12-28T16:51:26;9.60;92.80
12233;DHT22;6179;51.748;8.728;2023-12-28T16:57:26;9.60;92.70
12233;DHT22;6179;51.748;8.728;2023-12-28T17:03:27;9.40;93.30
12233;DHT22;6179;51.748;8.728;2023-12-28T17:09:28;9.40;93.30
12233;DHT22;6179;51.748;8.728;2023-12-28T17:15:29;9.50;93.10
12233;DHT22;6179;51.748;8.728;2023-12-28T17:21:39;9.60;92.60
12233;DHT22;6179;51.748;8.728;2023-12-28T17:27:55;9.70;92.10
12233;DHT22;6179;51.748;8.728;2023-12-28T17:33:56;9.80;92.10
12233;DHT22;6179;51.748;8.728;2023-12-28T17:39:57;9.80;91.90
12233;DHT22;6179;51.748;8.728;2023-12-28T17:46:04;9.90;92.30
12233;DHT22;6179;51.748;8.728;2023-12-28T17:52:08;9.70;92.90
12233;DHT22;6179;51.748;8.728;2023-12-28T17:58:11;9.80;93.20
12233;DHT22;6179;51.748;8.728;2023-12-28T18:04:11;9.90;93.00
12233;DHT22;6179;51.748;8.728;2023-12-28T18:10:12;9.80;93.50
12233;DHT22;6179;51.748;8.728;2023-12-28T18:16:13;10.00;92.70
12233;DHT22;6179;51.748;8.728;2023-12-28T18:22:13;10.00;93.00
12233;DHT22;6179;51.748;8.728;2023-12-28T18:28:14;10.10;92.80
12233;DHT22;6179;51.748;8.728;2023-12-28T18:34:15;10.20;92.60
12233;DHT22;6179;51.748;8.728;2023-12-28T18:40:17;10.10;92.30
12233;DHT22;6179;51.748;8.728;2023-12-28T18:46:17;10.10;92.10
12233;DHT22;6179;51.748;8.728;2023-12-28T18:52:18;10.10;92.20
12233;DHT22;6179;51.748;8.728;2023-12-28T18:58:19;10.00;92.80
12233;DHT22;6179;51.748;8.728;2023-12-28T19:04:19;10.00;92.90
12233;DHT22;6179;51.748;8.728;2023-12-28T19:10:20;10.10;92.60
12233;DHT22;6179;51.748;8.728;2023-12-28T19:16:22;9.80;93.10
12233;DHT22;6179;51.748;8.728;2023-12-28T19:22:22;9.80;93.20
12233;DHT22;6179;51.748;8.728;2023-12-28T19:28:23;9.90;93.20
12233;DHT22;6179;51.748;8.728;2023-12-28T19:34:24;9.70;93.50
12233;DHT22;6179;51.748;8.728;2023-12-28T19:40:24;9.80;93.20
12233;DHT22;6179;51.748;8.728;2023-12-28T19:46:25;9.60;93.70
12233;DHT22;6179;51.748;8.728;2023-12-28T19:52:25;9.60;93.30
12233;DHT22;6179;51.748;8.728;2023-12-28T19:58:27;9.60;92.80
12233;DHT22;6179;51.748;8.728;2023-12-28T20:04:27;9.80;92.40
12233;DHT22;6179;51.748;8.728;2023-12-28T20:10:28;9.90;91.30
12233;DHT22;6179;51.748;8.728;2023-12-28T20:16:32;9.90;91.80
12233;DHT22;6179;51.748;8.728;2023-12-28T20:22:32;9.90;91.10
12233;DHT22;6179;51.748;8.728;2023-12-28T20:28:33;9.90;91.20
12233;DHT22;6179;51.748;8.728;2023-12-28T20:34:34;10.00;90.80
12233;DHT22;6179;51.748;8.728;2023-12-28T20:40:34;10.00;91.10
12233;DHT22;6179;51.748;8.728;2023-12-28T20:46:35;9.90;91.60
12233;DHT22;6179;51.748;8.728;2023-12-28T20:52:36;9.90;92.00
12233;DHT22;6179;51.748;8.728;2023-12-28T20:58:36;9.90;91.90
12233;DHT22;6179;51.748;8.728;2023-12-28T21:04:37;9.90;91.70
12233;DHT22;6179;51.748;8.728;2023-12-28T21:10:38;10.00;91.30
12233;DHT22;6179;51.748;8.728;2023-12-28T21:16:39;10.00;91.60
12233;DHT22;6179;51.748;8.728;2023-12-28T21:22:40;10.00;91.80
12233;DHT22;6179;51.748;8.728;2023-12-28T21:28:41;10.00;91.50
12233;DHT22;6179;51.748;8.728;2023-12-28T21:34:42;10.00;91.80
12233;DHT22;6179;51.748;8.728;2023-12-28T21:40:43;10.00;91.50
12233;DHT22;6179;51.748;8.728;2023-12-28T21:46:44;9.80;91.80
12233;DHT22;6179;51.748;8.728;2023-12-28T21:52:45;9.80;92.20
12233;DHT22;6179;51.748;8.728;2023-12-28T21:58:47;9.80;91.90
12233;DHT22;6179;51.748;8.728;2023-12-28T22:04:48;9.90;91.60
12233;DHT22;6179;51.748;8.728;2023-12-28T22:10:49;9.90;91.30
12233;DHT22;6179;51.748;8.728;2023-12-28T22:16:49;9.90;91.20
12233;DHT22;6179;51.748;8.728;2023-12-28T22:22:50;9.90;91.90
12233;DHT22;6179;51.748;8.728;2023-12-28T22:28:50;9.80;92.00
12233;DHT22;6179;51.748;8.728;2023-12-28T22:34:54;9.90;91.10
12233;DHT22;6179;51.748;8.728;2023-12-28T22:40:55;10.00;91.10
12233;DHT22;6179;51.748;8.728;2023-12-28T22:46:56;9.90;91.20
12233;DHT22;6179;51.748;8.728;2023-12-28T22:52:56;9.80;91.50
12233;DHT22;6179;51.748;8.728;2023-12-28T22:58:57;9.80;91.60
12233;DHT22;6179;51.748;8.728;2023-12-28T23:04:57;9.80;91.90
12233;DHT22;6179;51.748;8.728;2023-12-28T23:10:58;9.80;91.30
12233;DHT22;6179;51.748;8.728;2023-12-28T23:16:59;9.80;91.90
12233;DHT22;6179;51.748;8.728;2023-12-28T23:23:00;9.80;91.30
12233;DHT22;6179;51.748;8.728;2023-12-28T23:29:00;9.90;91.70
12233;DHT22;6179;51.748;8.728;2023-12-28T23:35:01;9.80;91.90
12233;DHT22;6179;51.748;8.728;2023-12-28T23:41:01;9.60;92.80
12233;DHT22;6179;51.748;8.728;2023-12-28T23:47:03;9.80;92.10
12233;DHT22;6179;51.748;8.728;2023-12-28T23:53:03;9.80;92.10
12233;DHT22;6179;51.748;8.728;2023-12-28T23:59:04;9.80;91.90
